Weather at Charlotte Douglas International Airport

Public forecast

Using degrees Fahrenheit for public forecast. Weather courtesy of forecast.io.

Current aviation weather report (METAR) for Charlotte Douglas International Airport

Retrieved 2021/07/29 07:52 UTC (32 minutes ago):

KCLT 290752Z 17004KT 10SM FEW250 23/20 A3001 RMK AO2 SLP152 T02280200

Aviation forecast (TAF) for Charlotte Douglas International Airport

Retrieved 2021/07/29 06:36 UTC (2 hours ago):

TAF KCLT 290532Z 2906/3012 18003KT P6SM FEW250 FM291700 23007KT P6SM FEW060 FEW250 FM300300 21003KT P6SM FEW250